Kaprijke — ONIK — position and weather

sailwx.info

Track history (hours):
 
Tides and Currents Weather Stations Pressure Air Temp Water Temp Dewpoint Dewpoint Depression Visibility Wind Speed Wind Dir Waves Ship Positions

Kaprijke

Last reported at 2018-Apr-23 09:00 UTC. Time now 2018-Apr-24 12:21 UTC.
Position N 20°48' W 094°18'.

Length 180 m; draft 8.6 m.

Type: Tanker. MMSI: 205283000.

Wind from 010 at 12 knots

Barometer 1018.0 mb
Air temperature 24.0 ° C
Visibility: greater than 10.8 NM
Dewpoint 21.0 ° C
Water temperature 27.0 ° C

Date/timePositionNaut miles runAvg speedWind from/ knotsBaromVisibWave heightAir tempDewpointWater temp
2018-Apr-23 09:00N 20°48' W 094°18'50514.6 010 / 121018.010.8 24.021.027.0
2018-Apr-21 22:32N 29°12' W 094°32'0 8.4
2018-Apr-21 22:28N 29°13' W 094°33'5 8.2
2018-Apr-21 21:53N 29°16' W 094°36'410.5
2018-Apr-21 21:29N 29°19' W 094°40'912.4
2018-Apr-21 20:47N 29°23' W 094°49'312.4
2018-Apr-21 20:31N 29°26' W 094°50'612.3
2018-Apr-21 20:00N 29°32' W 094°53'611.9
2018-Apr-21 19:30N 29°36' W 094°57'611.0
2018-Apr-21 19:00N 29°42' W 094°59'4 8.0
2018-Apr-21 18:30N 29°44' W 095°03'3 5.5
2018-Apr-21 18:00N 29°45' W 095°06'3 5.4
2018-Apr-21 17:30N 29°44' W 095°09'0 0.0
2018-Apr-20 15:32N 29°44' W 095°09'0 0.0
2018-Apr-20 15:30N 29°44' W 095°09'1 2.2
2018-Apr-20 15:00N 29°44' W 095°08'2 4.8
2018-Apr-20 14:30N 29°45' W 095°06'3 6.4
2018-Apr-20 14:00N 29°44' W 095°02'4 7.1
2018-Apr-20 13:30N 29°41' W 094°59'611.8
2018-Apr-20 13:00N 29°36' W 094°57'612.5
2018-Apr-20 12:30N 29°31' W 094°53'713.5
2018-Apr-20 12:00N 29°25' W 094°49'612.9
2018-Apr-20 11:30N 29°21' W 094°44'2010.8
2018-Apr-20 09:37N 29°09' W 094°24'210.0
2018-Apr-20 09:23N 29°08' W 094°26'611.0
2018-Apr-20 08:53N 29°05' W 094°31'1711.2
2018-Apr-20 07:20N 28°55' W 094°48'911.1
2018-Apr-20 06:30N 28°50' W 094°57'  
Track history (hours):
 
Tides and Currents Weather Stations Pressure Air Temp Water Temp Dewpoint Dewpoint Depression Visibility Wind Speed Wind Dir Waves Ship Positions

Kaprijke

Last reported at 2018-Apr-23 09:00 UTC. Time now 2018-Apr-24 12:21 UTC.
Position N 20°48' W 094°18'.

Length 180 m; draft 8.6 m.

Type: Tanker. MMSI: 205283000.

Wind from 010 at 12 knots

Barometer 1018.0 mb
Air temperature 24.0 ° C
Visibility: greater than 10.8 NM
Dewpoint 21.0 ° C
Water temperature 27.0 ° C

Date/timePositionNaut miles runAvg speedWind from/ knotsBaromVisibWave heightAir tempDewpointWater temp
2018-Apr-23 09:00N 20°48' W 094°18'50514.6 010 / 121018.010.8 24.021.027.0
2018-Apr-21 22:32N 29°12' W 094°32'0 8.4
2018-Apr-21 22:28N 29°13' W 094°33'5 8.2
2018-Apr-21 21:53N 29°16' W 094°36'410.5
2018-Apr-21 21:29N 29°19' W 094°40'912.4
2018-Apr-21 20:47N 29°23' W 094°49'312.4
2018-Apr-21 20:31N 29°26' W 094°50'612.3
2018-Apr-21 20:00N 29°32' W 094°53'611.9
2018-Apr-21 19:30N 29°36' W 094°57'611.0
2018-Apr-21 19:00N 29°42' W 094°59'4 8.0
2018-Apr-21 18:30N 29°44' W 095°03'3 5.5
2018-Apr-21 18:00N 29°45' W 095°06'3 5.4
2018-Apr-21 17:30N 29°44' W 095°09'0 0.0
2018-Apr-20 15:32N 29°44' W 095°09'0 0.0
2018-Apr-20 15:30N 29°44' W 095°09'1 2.2
2018-Apr-20 15:00N 29°44' W 095°08'2 4.8
2018-Apr-20 14:30N 29°45' W 095°06'3 6.4
2018-Apr-20 14:00N 29°44' W 095°02'4 7.1
2018-Apr-20 13:30N 29°41' W 094°59'611.8
2018-Apr-20 13:00N 29°36' W 094°57'612.5
2018-Apr-20 12:30N 29°31' W 094°53'713.5
2018-Apr-20 12:00N 29°25' W 094°49'612.9
2018-Apr-20 11:30N 29°21' W 094°44'2010.8
2018-Apr-20 09:37N 29°09' W 094°24'210.0
2018-Apr-20 09:23N 29°08' W 094°26'611.0
2018-Apr-20 08:53N 29°05' W 094°31'1711.2
2018-Apr-20 07:20N 28°55' W 094°48'911.1
2018-Apr-20 06:30N 28°50' W 094°57'  

Dump ship's entire track history